Time;durP1;ratioP1;P1;durP2;ratioP2;P2;SDS_P1;SDS_P2;PMS_P1;PMS_P2;Temp;Humidity;BMP_temperature;BMP_pressure;BME280_temperature;BME280_humidity;BME280_pressure;Samples;Min_cycle;Max_cycle;Signal;HPM_P1;HPM_P2
2021/04/16 00:01:44;;;;;;;4.55;2.53;;;;;;;11.30;30.63;100141.22;4957520;28;20042;-69
2021/04/16 00:04:09;;;;;;;7.22;2.65;;;;;;;11.18;30.61;100117.84;4957704;28;20039;-69
2021/04/16 00:06:35;;;;;;;7.07;2.63;;;;;;;11.27;31.10;100134.41;4957451;28;20071;-69
2021/04/16 00:09:01;;;;;;;6.72;2.88;;;;;;;11.06;31.04;100119.34;4959949;28;20038;-70
2021/04/16 00:11:27;;;;;;;7.18;2.70;;;;;;;10.94;31.00;100101.47;4960611;28;20031;-69
2021/04/16 00:13:53;;;;;;;5.82;3.08;;;;;;;11.14;31.11;100135.91;4960250;28;20128;-69
2021/04/16 00:16:23;;;;;;;4.53;2.28;;;;;;;11.13;31.59;100134.28;4960373;28;20460;-70
2021/04/16 00:18:48;;;;;;;5.50;2.55;;;;;;;11.07;31.46;100135.44;4961174;28;20035;-71
2021/04/16 00:21:15;;;;;;;3.63;2.35;;;;;;;10.97;31.41;100117.25;4958895;28;20035;-69
2021/04/16 00:23:41;;;;;;;4.80;2.63;;;;;;;10.72;31.26;100099.22;4960090;28;20408;-70
2021/04/16 00:26:08;;;;;;;5.13;2.90;;;;;;;10.97;31.74;100138.25;4961139;28;20031;-69
2021/04/16 00:28:34;;;;;;;5.13;2.60;;;;;;;10.78;31.64;100110.91;4960304;28;20043;-70
2021/04/16 00:31:24;;;;;;;5.57;2.78;;;;;;;10.94;31.93;100134.19;4961502;28;20090;-68
2021/04/16 00:33:51;;;;;;;6.50;3.22;;;;;;;10.71;31.96;100116.66;4960307;28;20031;-69
2021/04/16 00:36:17;;;;;;;5.18;2.70;;;;;;;10.89;31.74;100131.50;4961607;28;20506;-70
2021/04/16 00:38:43;;;;;;;3.63;2.42;;;;;;;10.89;32.01;100125.25;4964562;28;20357;-68
2021/04/16 00:41:13;;;;;;;4.28;2.75;;;;;;;10.87;31.88;100125.50;4969176;28;20399;-68
2021/04/16 00:43:39;;;;;;;5.85;2.55;;;;;;;10.88;31.98;100129.06;4960848;28;20067;-68
2021/04/16 00:46:18;;;;;;;5.07;2.38;;;;;;;10.84;32.11;100121.44;4968937;28;20070;-69
2021/04/16 00:48:57;;;;;;;4.50;2.65;;;;;;;10.75;31.75;100108.72;4959887;28;20024;-69
2021/04/16 00:51:35;;;;;;;5.55;2.22;;;;;;;10.75;31.92;100115.00;4959780;28;20038;-69
2021/04/16 00:54:02;;;;;;;6.15;2.67;;;;;;;10.71;31.83;100108.50;4959739;28;20110;-70
2021/04/16 00:56:29;;;;;;;3.42;2.53;;;;;;;10.68;32.07;100115.34;4960621;28;20098;-69
2021/04/16 00:58:55;;;;;;;5.22;2.70;;;;;;;10.57;31.98;100096.63;4960556;28;20035;-69
2021/04/16 01:01:21;;;;;;;4.30;2.95;;;;;;;10.63;32.39;100107.19;4960425;28;20035;-69
2021/04/16 01:03:47;;;;;;;4.95;3.05;;;;;;;10.62;32.25;100110.22;4960836;28;20046;-70
2021/04/16 01:06:13;;;;;;;4.97;2.47;;;;;;;10.61;31.91;100103.94;4960522;28;20118;-69
2021/04/16 01:08:38;;;;;;;5.05;2.70;;;;;;;10.59;32.01;100106.13;4960573;28;20109;-69
2021/04/16 01:11:06;;;;;;;5.15;2.78;;;;;;;10.58;32.32;100095.53;4961466;28;20042;-69
2021/04/16 01:13:33;;;;;;;3.65;2.70;;;;;;;10.53;32.33;100099.91;4959750;28;20038;-70
2021/04/16 01:16:02;;;;;;;7.50;2.92;;;;;;;10.44;32.52;100109.78;4960087;28;20066;-68
2021/04/16 01:18:32;;;;;;;4.97;2.65;;;;;;;10.33;32.23;100095.41;4960144;28;20110;-69
2021/04/16 01:21:01;;;;;;;4.90;2.78;;;;;;;10.20;32.79;100094.13;4955759;28;20027;-68
2021/04/16 01:24:03;;;;;;;4.90;2.67;;;;;;;10.12;33.16;100097.47;4958824;28;20090;-69
2021/04/16 01:26:33;;;;;;;5.68;2.80;;;;;;;10.06;32.83;100104.84;4953435;28;20447;-68
2021/04/16 01:28:59;;;;;;;5.45;2.95;;;;;;;10.06;33.09;100106.78;4959685;28;20074;-68
2021/04/16 01:31:27;;;;;;;7.25;3.00;;;;;;;10.04;32.99;100111.69;4960138;28;20032;-68
2021/04/16 01:33:53;;;;;;;4.55;2.83;;;;;;;9.93;33.05;100100.84;4960275;28;20114;-69
2021/04/16 01:36:23;;;;;;;5.68;2.80;;;;;;;9.85;33.54;100109.59;4965228;28;20055;-70
2021/04/16 01:38:49;;;;;;;4.65;2.70;;;;;;;9.72;33.49;100110.22;4959338;28;20046;-70
2021/04/16 01:41:16;;;;;;;5.93;2.72;;;;;;;9.52;33.23;100100.25;4960115;28;20027;-69
2021/04/16 01:43:45;;;;;;;5.22;3.20;;;;;;;9.47;33.71;100097.53;4960043;28;20103;-69
2021/04/16 01:46:14;;;;;;;5.63;3.00;;;;;;;9.50;34.00;100118.75;4968836;28;20038;-69
2021/04/16 01:48:52;;;;;;;9.10;3.20;;;;;;;9.41;33.93;100116.59;4954779;28;20034;-69
2021/04/16 01:51:23;;;;;;;5.22;2.80;;;;;;;9.24;34.04;100102.50;4958349;28;20034;-70
2021/04/16 01:54:00;;;;;;;5.13;3.15;;;;;;;9.22;34.00;100124.56;4958120;28;20470;-70
2021/04/16 01:56:26;;;;;;;4.70;3.10;;;;;;;9.11;34.57;100128.38;4958525;28;20439;-69
2021/04/16 01:58:51;;;;;;;4.15;2.88;;;;;;;9.02;34.42;100119.16;4958583;28;20035;-69
2021/04/16 02:01:16;;;;;;;3.92;2.90;;;;;;;8.95;34.82;100114.81;4959250;28;20674;-70
2021/04/16 02:03:42;;;;;;;5.38;3.30;;;;;;;8.83;34.75;100117.03;4959174;28;20023;-69
2021/04/16 02:06:07;;;;;;;3.42;2.45;;;;;;;8.77;34.49;100118.09;4959310;28;20024;-69
2021/04/16 02:08:32;;;;;;;6.75;3.20;;;;;;;8.72;34.92;100123.56;4959810;28;20034;-70
2021/04/16 02:10:58;;;;;;;6.32;3.38;;;;;;;8.68;35.19;100117.84;4959933;28;20027;-69
2021/04/16 02:13:23;;;;;;;4.75;2.63;;;;;;;8.66;35.42;100114.56;4959738;28;20029;-69
2021/04/16 02:15:49;;;;;;;4.30;3.05;;;;;;;8.60;35.21;100108.31;4958816;28;20059;-68
2021/04/16 02:18:14;;;;;;;4.38;3.00;;;;;;;8.60;35.89;100115.66;4957334;28;20023;-69
2021/04/16 02:20:39;;;;;;;5.97;2.92;;;;;;;8.35;35.80;100082.75;4955868;28;20030;-69
2021/04/16 02:23:05;;;;;;;6.72;3.00;;;;;;;8.54;35.98;100123.00;4959642;28;20030;-69
2021/04/16 02:25:30;;;;;;;6.22;3.20;;;;;;;8.55;36.15;100119.19;4959434;28;20027;-69
2021/04/16 02:27:56;;;;;;;4.10;2.70;;;;;;;8.51;35.99;100129.00;4958547;28;20023;-69
2021/04/16 02:30:28;;;;;;;5.20;2.95;;;;;;;8.49;36.06;100123.81;4958970;28;20035;-69
2021/04/16 02:32:54;;;;;;;5.35;3.13;;;;;;;8.30;35.70;100100.97;4958693;28;20086;-69
2021/04/16 02:35:20;;;;;;;4.13;2.80;;;;;;;8.41;36.30;100129.75;4960353;28;20027;-69
2021/04/16 02:37:46;;;;;;;5.90;3.38;;;;;;;8.37;36.35;100128.69;4958655;28;20385;-70
2021/04/16 02:40:14;;;;;;;5.85;2.95;;;;;;;8.28;35.94;100127.59;4969203;28;20029;-69
2021/04/16 02:42:40;;;;;;;5.50;3.65;;;;;;;8.24;36.36;100131.91;4959054;28;20023;-69
2021/04/16 02:45:07;;;;;;;5.90;3.45;;;;;;;8.18;36.39;100123.75;4958424;28;20026;-69
2021/04/16 02:47:33;;;;;;;6.43;3.10;;;;;;;8.09;36.66;100124.56;4964961;28;20551;-69
2021/04/16 02:49:59;;;;;;;7.45;3.35;;;;;;;8.08;36.45;100131.09;4958580;28;20365;-69
2021/04/16 02:52:25;;;;;;;5.05;3.20;;;;;;;8.08;36.43;100128.38;4958770;28;20392;-69
2021/04/16 02:54:50;;;;;;;5.57;3.17;;;;;;;8.01;36.33;100115.88;4958908;28;20031;-69
2021/04/16 02:57:16;;;;;;;6.00;2.97;;;;;;;8.10;36.24;100120.78;4957945;28;20015;-70
2021/04/16 02:59:41;;;;;;;4.82;3.05;;;;;;;8.07;35.80;100124.81;4957825;28;20019;-69
2021/04/16 03:02:06;;;;;;;8.35;3.60;;;;;;;8.06;35.89;100119.66;4958886;28;20027;-69
2021/04/16 03:04:32;;;;;;;6.55;3.25;;;;;;;7.81;35.80;100094.88;4958193;28;20082;-70
2021/04/16 03:06:58;;;;;;;5.80;3.05;;;;;;;8.03;35.78;100129.97;4958567;28;20059;-69
2021/04/16 03:09:23;;;;;;;4.32;3.17;;;;;;;8.00;35.72;100132.41;4959759;28;20023;-69
2021/04/16 03:11:48;;;;;;;6.82;3.05;;;;;;;7.97;35.75;100133.75;4958607;28;20053;-69
2021/04/16 03:14:14;;;;;;;4.95;3.63;;;;;;;7.95;35.73;100122.34;4958001;28;20392;-69
2021/04/16 03:16:40;;;;;;;5.97;3.50;;;;;;;7.99;35.70;100131.59;4958446;28;20019;-69
2021/04/16 03:19:06;;;;;;;6.72;3.58;;;;;;;7.99;35.76;100125.34;4957764;28;20172;-69
2021/04/16 03:21:32;;;;;;;6.00;3.33;;;;;;;8.02;35.79;100124.81;4955556;28;20384;-70
2021/04/16 03:23:58;;;;;;;3.70;2.92;;;;;;;8.06;35.45;100125.91;4957834;28;20508;-69
2021/04/16 03:26:24;;;;;;;5.38;3.60;;;;;;;8.06;35.31;100125.09;4958115;28;20504;-69
2021/04/16 03:28:55;;;;;;;6.93;3.58;;;;;;;8.02;35.45;100122.91;4957887;28;20051;-69
2021/04/16 03:31:21;;;;;;;4.85;3.42;;;;;;;7.95;35.47;100127.78;4951885;28;20088;-69
2021/04/16 03:33:47;;;;;;;7.32;3.50;;;;;;;7.88;35.55;100127.22;4958077;28;20038;-70
2021/04/16 03:36:13;;;;;;;7.15;3.28;;;;;;;7.77;35.62;100123.66;4962871;28;20035;-68
2021/04/16 03:38:38;;;;;;;8.40;3.42;;;;;;;7.70;36.01;100117.66;4961024;28;20114;-69
2021/04/16 03:41:04;;;;;;;5.00;3.25;;;;;;;7.65;35.85;100126.59;4966879;28;20031;-69
2021/04/16 03:43:29;;;;;;;4.47;3.50;;;;;;;7.62;36.02;100118.19;4956521;28;20118;-68
2021/04/16 03:45:54;;;;;;;6.22;3.83;;;;;;;7.55;36.16;100123.84;4963840;28;20023;-69
2021/04/16 03:48:20;;;;;;;6.35;3.40;;;;;;;7.53;36.07;100120.56;4959456;28;20495;-70
2021/04/16 03:50:45;;;;;;;6.03;3.78;;;;;;;7.53;36.51;100128.72;4957555;28;20031;-70
2021/04/16 03:53:11;;;;;;;5.32;3.50;;;;;;;7.55;36.16;100124.69;4957831;28;20031;-69
2021/04/16 03:55:38;;;;;;;6.60;3.75;;;;;;;7.54;36.44;100122.22;4958335;28;20507;-69
2021/04/16 03:58:08;;;;;;;6.63;3.42;;;;;;;7.45;36.39;100115.66;4957256;28;20023;-70
2021/04/16 04:00:37;;;;;;;5.07;3.30;;;;;;;7.51;36.33;100130.91;4957779;28;20039;-69
2021/04/16 04:03:04;;;;;;;5.65;3.58;;;;;;;7.52;36.20;100124.41;4957872;28;20024;-70
2021/04/16 04:05:30;;;;;;;6.07;3.22;;;;;;;7.53;36.60;100126.00;4957990;28;20036;-69
2021/04/16 04:07:55;;;;;;;4.72;3.30;;;;;;;7.52;36.46;100132.53;4957158;28;20031;-68
2021/04/16 04:10:23;;;;;;;6.07;3.45;;;;;;;7.39;36.76;100129.22;4960163;28;20055;-69
2021/04/16 04:12:49;;;;;;;9.15;4.22;;;;;;;7.34;36.54;100128.34;4957108;28;20486;-70
2021/04/16 04:15:17;;;;;;;5.65;3.65;;;;;;;7.30;36.66;100135.41;4957982;28;20035;-69
2021/04/16 04:17:42;;;;;;;5.00;3.53;;;;;;;7.25;36.87;100134.28;4957119;28;20061;-69
2021/04/16 04:20:21;;;;;;;6.10;3.60;;;;;;;7.22;37.08;100136.72;4954765;28;20027;-69
2021/04/16 04:22:47;;;;;;;5.32;3.70;;;;;;;7.17;37.04;100144.81;4946634;28;20073;-70
2021/04/16 04:25:14;;;;;;;5.22;3.33;;;;;;;7.15;37.01;100144.25;4957721;28;20063;-69
2021/04/16 04:27:40;;;;;;;4.65;3.15;;;;;;;7.09;37.02;100148.81;4956903;28;20027;-68
2021/04/16 04:30:06;;;;;;;5.32;3.00;;;;;;;7.07;36.91;100149.09;4956954;28;20050;-69
2021/04/16 04:32:32;;;;;;;4.43;3.53;;;;;;;7.03;37.17;100150.69;4957052;28;20062;-70
2021/04/16 04:34:57;;;;;;;6.93;3.78;;;;;;;6.83;37.20;100126.97;4957651;28;20051;-69
2021/04/16 04:37:23;;;;;;;5.57;3.58;;;;;;;6.99;37.45;100154.16;4958468;28;20098;-69
2021/04/16 04:39:48;;;;;;;6.00;3.60;;;;;;;6.93;36.88;100156.84;4957662;28;20027;-70
2021/04/16 04:42:15;;;;;;;5.22;3.33;;;;;;;6.87;37.58;100151.66;4957481;28;20047;-69
2021/04/16 04:44:40;;;;;;;6.63;3.50;;;;;;;6.86;37.38;100163.59;4957380;28;20046;-69
2021/04/16 04:47:08;;;;;;;6.22;3.38;;;;;;;6.82;37.44;100151.63;4959153;28;20357;-68
2021/04/16 04:49:33;;;;;;;5.20;3.53;;;;;;;6.81;37.60;100147.28;4956574;28;20035;-70
2021/04/16 04:52:12;;;;;;;6.47;3.50;;;;;;;6.89;37.62;100157.63;4957051;28;20502;-69
2021/04/16 04:54:39;;;;;;;6.18;3.58;;;;;;;6.86;37.85;100169.00;4954057;28;20043;-69
2021/04/16 04:57:05;;;;;;;5.25;3.63;;;;;;;6.87;37.88;100166.03;4960174;28;20034;-69
2021/04/16 04:59:30;;;;;;;5.65;3.95;;;;;;;6.89;37.97;100163.06;4960747;28;20028;-70
2021/04/16 05:01:56;;;;;;;4.93;3.47;;;;;;;6.86;37.85;100169.00;4960641;28;20522;-69
2021/04/16 05:04:21;;;;;;;6.18;3.90;;;;;;;6.66;38.17;100139.84;4961192;28;20476;-69
2021/04/16 05:06:47;;;;;;;10.27;4.10;;;;;;;6.76;38.43;100173.28;4960453;28;20102;-70
2021/04/16 05:09:12;;;;;;;5.10;3.90;;;;;;;6.75;38.38;100176.22;4962403;28;20058;-69
2021/04/16 05:11:37;;;;;;;6.25;3.72;;;;;;;6.68;38.65;100173.75;4960994;28;20027;-69
2021/04/16 05:14:03;;;;;;;5.68;3.70;;;;;;;6.61;38.79;100179.38;4960365;28;20397;-70
2021/04/16 05:16:28;;;;;;;4.93;3.42;;;;;;;6.55;38.82;100185.00;4960677;28;20024;-69
2021/04/16 05:18:54;;;;;;;6.47;4.20;;;;;;;6.52;38.75;100188.22;4960261;28;20082;-69
2021/04/16 05:21:20;;;;;;;9.02;4.28;;;;;;;6.51;38.75;100189.31;4957459;28;20456;-69
2021/04/16 05:23:45;;;;;;;6.68;4.30;;;;;;;6.41;38.67;100176.47;4960548;28;20043;-70
2021/04/16 05:26:11;;;;;;;7.75;4.25;;;;;;;6.46;38.88;100190.06;4960305;28;20043;-69
2021/04/16 05:28:36;;;;;;;6.97;4.20;;;;;;;6.43;39.03;100193.28;4960016;28;20083;-69
2021/04/16 05:31:02;;;;;;;6.75;4.35;;;;;;;6.39;39.05;100192.16;4959976;28;20190;-70
2021/04/16 05:33:27;;;;;;;5.53;4.18;;;;;;;6.33;39.32;100194.00;4959659;28;20031;-69
2021/04/16 05:35:53;;;;;;;7.70;3.97;;;;;;;6.29;39.35;100195.56;4959745;28;20027;-69
2021/04/16 05:38:18;;;;;;;8.25;4.57;;;;;;;6.25;39.58;100197.16;4959464;28;20027;-70
2021/04/16 05:40:44;;;;;;;5.97;4.43;;;;;;;6.22;39.38;100195.78;4960287;28;20024;-68
2021/04/16 05:43:09;;;;;;;7.50;4.70;;;;;;;6.20;39.54;100205.25;4960057;28;20110;-69
2021/04/16 05:45:35;;;;;;;6.90;4.43;;;;;;;6.21;39.44;100213.09;4963337;28;20029;-69
2021/04/16 05:48:00;;;;;;;8.00;4.75;;;;;;;6.21;39.48;100209.56;4964340;28;20431;-70
2021/04/16 05:50:25;;;;;;;5.70;4.32;;;;;;;6.09;39.75;100196.16;4959886;28;20022;-69
2021/04/16 05:52:51;;;;;;;7.50;4.60;;;;;;;6.17;39.77;100208.44;4959962;28;20077;-69
2021/04/16 05:55:17;;;;;;;6.65;4.85;;;;;;;6.08;39.67;100205.34;4958491;28;20035;-70
2021/04/16 05:57:42;;;;;;;8.27;5.05;;;;;;;6.20;39.78;100226.91;4959298;28;20109;-69
2021/04/16 06:00:10;;;;;;;10.50;4.90;;;;;;;6.22;40.03;100222.03;4959191;28;20547;-69
2021/04/16 06:02:38;;;;;;;7.43;5.13;;;;;;;6.20;39.95;100225.00;4959375;28;20027;-69
2021/04/16 06:05:07;;;;;;;6.47;4.70;;;;;;;6.11;40.28;100221.09;4974552;28;20035;-70
2021/04/16 06:07:32;;;;;;;6.03;4.30;;;;;;;6.06;40.20;100210.22;4958488;28;20038;-71
2021/04/16 06:09:58;;;;;;;7.13;4.60;;;;;;;6.10;40.17;100222.16;4960652;28;20023;-69
2021/04/16 06:12:24;;;;;;;10.52;4.30;;;;;;;6.07;40.50;100226.22;4958816;28;20027;-70
2021/04/16 06:14:50;;;;;;;7.32;4.40;;;;;;;5.98;40.69;100216.84;4958185;28;20034;-69
2021/04/16 06:17:16;;;;;;;7.22;4.60;;;;;;;6.05;40.40;100211.28;4961861;28;20105;-69
2021/04/16 06:19:48;;;;;;;7.07;4.10;;;;;;;6.02;40.74;100212.63;4969318;28;20034;-60
2021/04/16 06:22:13;;;;;;;6.50;4.13;;;;;;;6.02;40.70;100212.63;4963244;28;20035;-70
2021/04/16 06:24:39;;;;;;;10.30;4.13;;;;;;;6.03;41.08;100211.56;4959699;28;20023;-69
2021/04/16 06:27:04;;;;;;;5.55;4.00;;;;;;;6.04;40.68;100212.34;4959027;28;20546;-70
2021/04/16 06:29:31;;;;;;;5.75;3.58;;;;;;;6.07;40.98;100218.09;4961182;28;20055;-69
2021/04/16 06:31:57;;;;;;;8.20;4.18;;;;;;;5.85;40.96;100182.88;4960617;28;20062;-71
2021/04/16 06:34:22;;;;;;;9.68;4.45;;;;;;;6.06;41.00;100227.28;4958170;28;20484;-69
2021/04/16 06:36:49;;;;;;;7.88;4.70;;;;;;;6.04;41.02;100215.88;4964205;28;20062;-70
2021/04/16 06:39:15;;;;;;;10.23;4.53;;;;;;;6.03;41.06;100214.25;4967221;28;20175;-69
2021/04/16 06:41:40;;;;;;;7.97;5.35;;;;;;;6.08;41.09;100219.72;4962540;28;20594;-70
2021/04/16 06:44:25;;;;;;;9.00;4.03;;;;;;;6.13;41.34;100229.78;4958640;28;20550;-69
2021/04/16 06:47:20;;;;;;;12.48;4.65;;;;;;;6.15;41.35;100227.66;4963253;28;20062;-70
2021/04/16 06:49:47;;;;;;;6.47;4.53;;;;;;;6.20;41.02;100240.44;4950228;28;20047;-70
2021/04/16 06:52:20;;;;;;;7.78;4.35;;;;;;;6.09;40.81;100207.81;4958864;28;20605;-69
2021/04/16 06:55:20;;;;;;;6.53;4.50;;;;;;;6.32;41.17;100241.09;4958841;28;20038;-70
2021/04/16 06:58:12;;;;;;;6.63;4.47;;;;;;;6.33;40.55;100242.75;4961313;28;20388;-70
2021/04/16 07:00:47;;;;;;;8.80;4.70;;;;;;;6.31;40.83;100244.88;4958981;28;20023;-70
2021/04/16 07:03:25;;;;;;;7.00;4.15;;;;;;;6.38;40.86;100248.22;4959039;28;20027;-70
2021/04/16 07:05:55;;;;;;;8.43;4.57;;;;;;;6.44;40.39;100247.22;4958308;28;20030;-70
2021/04/16 07:08:39;;;;;;;9.05;4.55;;;;;;;6.49;40.12;100251.84;4958387;28;20031;-69
2021/04/16 07:11:19;;;;;;;7.95;4.78;;;;;;;6.50;40.19;100247.25;4957324;28;20027;-69
2021/04/16 07:13:45;;;;;;;5.60;3.80;;;;;;;6.51;39.83;100249.69;4958607;28;20037;-69
2021/04/16 07:16:10;;;;;;;8.30;4.55;;;;;;;6.54;40.00;100243.78;4958584;28;20023;-69
2021/04/16 07:18:42;;;;;;;8.07;4.20;;;;;;;6.54;39.63;100226.69;4958403;28;20099;-70
2021/04/16 07:21:11;;;;;;;6.07;4.15;;;;;;;6.67;39.92;100241.72;4956094;28;20051;-69
2021/04/16 07:23:53;;;;;;;8.40;4.63;;;;;;;6.72;39.73;100242.59;4958471;28;20035;-70
2021/04/16 07:26:35;;;;;;;6.55;4.18;;;;;;;6.72;39.54;100250.72;4958564;28;20027;-70
2021/04/16 07:29:01;;;;;;;8.13;4.60;;;;;;;6.81;39.33;100258.38;4946190;28;20049;-69
2021/04/16 07:31:32;;;;;;;9.38;4.65;;;;;;;6.90;39.19;100251.44;4958361;28;20031;-69
2021/04/16 07:33:59;;;;;;;9.60;4.82;;;;;;;6.98;39.21;100258.28;4958265;28;20078;-69
2021/04/16 07:36:39;;;;;;;8.77;4.57;;;;;;;7.07;39.30;100249.41;4959056;28;20022;-69
2021/04/16 07:39:13;;;;;;;6.50;4.38;;;;;;;7.12;39.05;100258.66;4964096;28;20019;-69
2021/04/16 07:41:45;;;;;;;6.80;4.50;;;;;;;7.19;39.33;100265.50;4961951;28;20023;-69
2021/04/16 07:44:37;;;;;;;7.40;5.00;;;;;;;7.10;38.90;100253.50;4958362;28;20027;-69
2021/04/16 07:47:15;;;;;;;7.72;4.13;;;;;;;7.11;39.07;100260.56;4964867;28;20384;-70
2021/04/16 07:50:03;;;;;;;8.80;4.63;;;;;;;7.15;39.34;100267.09;4957910;28;20069;-69
2021/04/16 07:52:41;;;;;;;6.03;4.30;;;;;;;7.22;39.39;100266.88;4951004;28;20051;-69
2021/04/16 07:55:26;;;;;;;8.30;4.43;;;;;;;7.29;39.27;100270.19;4946220;28;20050;-69
2021/04/16 07:57:51;;;;;;;7.03;4.20;;;;;;;7.37;39.26;100271.59;4957863;28;20029;-70
2021/04/16 08:00:22;;;;;;;9.27;4.38;;;;;;;7.40;39.11;100266.47;4957867;28;20118;-71
2021/04/16 08:02:51;;;;;;;7.93;4.20;;;;;;;7.46;39.26;100269.22;4958019;28;20408;-70
2021/04/16 08:05:26;;;;;;;10.27;4.40;;;;;;;7.48;38.85;100267.06;4957986;28;20441;-70
2021/04/16 08:08:10;;;;;;;6.22;4.00;;;;;;;7.55;39.15;100273.91;4958001;28;20059;-70
2021/04/16 08:10:38;;;;;;;6.13;4.22;;;;;;;7.53;38.91;100275.22;4958122;28;20504;-69
2021/04/16 08:13:24;;;;;;;7.65;4.68;;;;;;;7.45;38.98;100248.59;4957816;28;20038;-69
2021/04/16 08:15:50;;;;;;;7.07;4.88;;;;;;;7.66;38.84;100277.50;4957910;28;20031;-70
2021/04/16 08:18:19;;;;;;;7.30;4.57;;;;;;;7.71;38.94;100274.81;4957916;28;20435;-70
2021/04/16 08:20:59;;;;;;;7.45;4.65;;;;;;;7.73;38.88;100279.97;4956150;28;20072;-69
2021/04/16 08:23:30;;;;;;;8.50;4.35;;;;;;;7.80;39.09;100285.19;4957854;28;20034;-70
2021/04/16 08:25:57;;;;;;;7.10;4.28;;;;;;;7.91;38.83;100296.91;4957724;28;20083;-69
2021/04/16 08:28:51;;;;;;;7.53;4.75;;;;;;;8.01;39.12;100286.94;4956275;28;20472;-69
2021/04/16 08:31:26;;;;;;;8.27;4.60;;;;;;;7.91;38.80;100276.03;4958182;28;20050;-70
2021/04/16 08:34:28;;;;;;;6.88;4.38;;;;;;;8.16;38.48;100294.31;4961672;28;20034;-70
2021/04/16 08:36:57;;;;;;;8.07;4.75;;;;;;;8.24;38.37;100301.16;4962102;28;20035;-69
2021/04/16 08:39:32;;;;;;;9.85;4.50;;;;;;;8.30;37.80;100302.81;4960643;28;20027;-70
2021/04/16 08:42:07;;;;;;;6.57;4.38;;;;;;;8.20;37.54;100283.75;4959262;28;20976;-70
2021/04/16 08:44:38;;;;;;;9.30;4.97;;;;;;;8.42;37.81;100301.78;4961656;28;20079;-72
2021/04/16 08:47:06;;;;;;;8.30;4.63;;;;;;;8.56;37.21;100302.94;4961510;28;20075;-70
2021/04/16 08:49:34;;;;;;;9.48;4.63;;;;;;;8.63;37.13;100298.06;4961073;28;20031;-71
2021/04/16 08:52:04;;;;;;;8.63;4.78;;;;;;;8.73;36.63;100293.72;4960820;28;20031;-70
2021/04/16 08:54:33;;;;;;;7.40;4.85;;;;;;;8.76;36.83;100298.63;4961040;28;20042;-68
2021/04/16 08:57:44;;;;;;;11.95;4.65;;;;;;;8.83;36.72;100301.91;4960554;28;20027;-71
2021/04/16 09:00:17;;;;;;;7.38;4.78;;;;;;;8.84;36.94;100309.00;4958752;28;20039;-70
2021/04/16 09:02:43;;;;;;;7.75;4.82;;;;;;;8.82;36.24;100297.56;4960442;28;20063;-71
2021/04/16 09:05:23;;;;;;;10.85;4.97;;;;;;;8.74;36.61;100296.16;4960474;28;20038;-71
2021/04/16 09:08:17;;;;;;;7.20;4.30;;;;;;;8.80;36.37;100305.97;4960220;28;20393;-72
2021/04/16 09:10:42;;;;;;;10.57;4.68;;;;;;;8.86;36.76;100309.50;4961795;28;20034;-70
2021/04/16 09:13:13;;;;;;;7.15;4.60;;;;;;;8.94;36.54;100302.75;4960882;28;20495;-71
2021/04/16 09:15:41;;;;;;;9.00;4.50;;;;;;;8.99;35.77;100302.75;4962535;28;20102;-72
2021/04/16 09:18:30;;;;;;;8.77;4.60;;;;;;;9.05;35.99;100304.38;4951358;28;20040;-71
2021/04/16 09:20:55;;;;;;;7.63;4.97;;;;;;;9.09;35.75;100305.47;4950003;28;20031;-71
2021/04/16 09:23:26;;;;;;;10.27;5.35;;;;;;;9.20;36.01;100308.22;4960352;28;20063;-71
2021/04/16 09:25:52;;;;;;;9.95;5.00;;;;;;;9.26;35.68;100307.13;4960781;28;20063;-71
2021/04/16 09:28:21;;;;;;;7.60;5.00;;;;;;;9.29;35.81;100306.59;4964336;28;20074;-72
2021/04/16 09:30:47;;;;;;;7.55;4.72;;;;;;;9.35;35.60;100301.94;4960170;28;20046;-72
2021/04/16 09:33:18;;;;;;;7.93;4.65;;;;;;;9.40;35.21;100307.38;4960079;28;20032;-72
2021/04/16 09:35:54;;;;;;;8.50;4.68;;;;;;;9.43;35.31;100312.25;4965417;28;20066;-73
2021/04/16 09:38:23;;;;;;;7.93;4.57;;;;;;;9.51;35.26;100297.31;4958425;28;20063;-71
2021/04/16 09:41:19;;;;;;;8.77;5.00;;;;;;;9.56;35.57;100298.13;4966896;28;20672;-71
2021/04/16 09:43:53;;;;;;;9.07;4.85;;;;;;;9.48;35.73;100279.63;4949152;28;20097;-71
2021/04/16 09:46:45;;;;;;;7.68;5.05;;;;;;;9.81;34.98;100299.16;4966496;28;20042;-72
2021/04/16 09:49:36;;;;;;;10.30;4.32;;;;;;;9.89;35.13;100309.50;4958244;28;20027;-72
2021/04/16 09:52:27;;;;;;;7.63;4.75;;;;;;;9.90;34.80;100302.97;4950417;28;20041;-73
2021/04/16 09:54:54;;;;;;;7.18;5.07;;;;;;;9.74;34.90;100269.50;4947571;28;20165;-71
2021/04/16 09:57:19;;;;;;;8.40;4.70;;;;;;;9.96;34.85;100295.56;4959476;28;20142;-71
2021/04/16 09:59:46;;;;;;;10.15;5.35;;;;;;;10.06;35.04;100294.75;4959109;28;20054;-72
2021/04/16 10:02:14;;;;;;;10.32;4.75;;;;;;;10.14;35.09;100307.78;4959022;28;20114;-72
2021/04/16 10:04:57;;;;;;;8.93;4.93;;;;;;;10.05;34.71;100291.19;4959594;28;20074;-72
2021/04/16 10:07:37;;;;;;;14.00;5.38;;;;;;;10.14;35.07;100294.16;4958850;28;20041;-72
2021/04/16 10:10:39;;;;;;;6.75;5.00;;;;;;;10.19;34.26;100296.06;4971308;28;20031;-73
2021/04/16 10:13:30;;;;;;;8.23;5.20;;;;;;;10.27;34.55;100291.94;4958355;28;20039;-67
2021/04/16 10:15:57;;;;;;;8.20;4.60;;;;;;;10.02;34.52;100234.56;4947332;28;20447;-68
2021/04/16 10:18:33;;;;;;;8.68;4.88;;;;;;;10.49;34.91;100276.06;4960818;28;20019;-68
2021/04/16 10:21:07;;;;;;;;;;;;;;;10.55;34.55;100280.38;4959135;28;20030;-68
2021/04/16 10:23:36;;;;;;;12.05;5.47;;;;;;;10.66;34.90;100285.78;4959374;28;19921;-69
2021/04/16 12:38:43;;;;;;;4.75;2.30;;;;;;;13.21;23.26;100204.16;4953106;28;20046;-70
2021/04/16 12:41:15;;;;;;;3.58;2.03;;;;;;;13.21;23.76;100193.19;4957789;28;20031;-69
2021/04/16 12:43:41;;;;;;;5.45;2.40;;;;;;;13.11;23.80;100185.97;4956585;28;20400;-69
2021/04/16 12:46:08;;;;;;;3.25;2.33;;;;;;;13.22;23.55;100195.63;4960233;28;20539;-69
2021/04/16 12:48:34;;;;;;;7.50;2.88;;;;;;;13.26;23.90;100209.53;4957241;28;20027;-70
2021/04/16 12:50:59;;;;;;;4.22;2.42;;;;;;;13.19;23.74;100220.84;4956706;28;20034;-70
2021/04/16 12:53:25;;;;;;;3.55;2.60;;;;;;;13.06;23.31;100177.84;4957130;28;20027;-69
2021/04/16 12:55:50;;;;;;;4.80;2.50;;;;;;;13.17;23.45;100195.72;4957271;28;20081;-70
2021/04/16 12:58:24;;;;;;;3.72;2.45;;;;;;;13.27;23.51;100191.16;4956680;28;20046;-70
2021/04/16 13:00:50;;;;;;;7.78;2.10;;;;;;;13.24;23.60;100159.72;4956946;28;20442;-70
2021/04/16 13:03:31;;;;;;;5.55;2.53;;;;;;;13.52;23.06;100200.88;4957089;28;20511;-70
2021/04/16 13:05:56;;;;;;;4.25;2.35;;;;;;;13.52;23.00;100192.66;4956608;28;20066;-69
2021/04/16 13:08:22;;;;;;;4.88;2.42;;;;;;;13.51;22.80;100188.28;4957005;28;20106;-69
2021/04/16 13:10:48;;;;;;;6.03;2.13;;;;;;;13.61;22.80;100195.50;4957284;28;20167;-70
2021/04/16 13:13:13;;;;;;;3.97;2.25;;;;;;;13.50;22.94;100160.09;4957198;28;20023;-69
2021/04/16 13:15:39;;;;;;;4.82;2.30;;;;;;;13.72;22.89;100190.66;4957577;28;20027;-69
2021/04/16 13:18:14;;;;;;;4.75;2.50;;;;;;;13.74;23.22;100178.25;4965775;28;20029;-69
2021/04/16 13:20:39;;;;;;;6.75;2.75;;;;;;;13.68;22.64;100177.53;4960766;28;20506;-67
2021/04/16 13:23:04;;;;;;;4.20;2.13;;;;;;;13.66;22.73;100188.00;4960744;28;20391;-68
2021/04/16 13:25:30;;;;;;;4.50;2.38;;;;;;;13.69;23.00;100168.22;4960589;28;20034;-68
2021/04/16 13:27:56;;;;;;;2.90;2.05;;;;;;;13.68;22.63;100166.59;4960227;28;20031;-67
2021/04/16 13:30:26;;;;;;;5.05;2.33;;;;;;;13.76;22.58;100166.97;4960559;28;20032;-67
2021/04/16 13:32:55;;;;;;;4.20;1.90;;;;;;;13.88;22.45;100170.03;4962108;28;20100;-67
2021/04/16 13:35:30;;;;;;;4.60;1.80;;;;;;;14.03;21.96;100170.81;4962192;28;20026;-67
2021/04/16 13:37:56;;;;;;;3.53;2.00;;;;;;;14.15;22.46;100174.66;4961861;28;20392;-68
2021/04/16 13:40:21;;;;;;;3.60;2.20;;;;;;;14.38;23.03;100171.16;4960473;28;20055;-68
2021/04/16 13:42:47;;;;;;;6.45;2.55;;;;;;;14.59;22.67;100174.19;4959693;28;20081;-68
2021/04/16 13:45:13;;;;;;;7.13;2.33;;;;;;;14.75;22.68;100171.94;4957541;28;20083;-67
2021/04/16 13:47:43;;;;;;;5.22;2.65;;;;;;;14.81;22.50;100165.19;4959568;28;20026;-66
2021/04/16 13:50:10;;;;;;;5.10;2.80;;;;;;;14.87;22.42;100165.88;4959052;28;20027;-66
2021/04/16 13:52:36;;;;;;;2.90;2.20;;;;;;;14.79;22.34;100171.00;4960067;28;20118;-66
2021/04/16 13:55:03;;;;;;;4.55;1.95;;;;;;;14.73;22.35;100166.75;4960217;28;20058;-67
2021/04/16 13:57:28;;;;;;;3.60;2.42;;;;;;;14.81;21.99;100156.94;4959849;28;20027;-66